createdAt,value
2023-04-09T00:00:36.697Z,22.50
2023-04-09T00:01:36.773Z,19.00
2023-04-09T00:02:36.813Z,15.20
2023-04-09T00:03:36.740Z,17.50
2023-04-09T00:04:36.697Z,19.70
2023-04-09T00:05:36.709Z,18.60
2023-04-09T00:06:36.679Z,22.20
2023-04-09T00:07:36.631Z,18.40
2023-04-09T00:08:36.629Z,17.20
2023-04-09T00:09:36.593Z,16.00
2023-04-09T00:10:36.599Z,19.40
2023-04-09T00:11:36.600Z,15.00
2023-04-09T00:12:36.572Z,17.00
2023-04-09T00:13:39.641Z,15.90
2023-04-09T00:14:36.561Z,19.10
2023-04-09T00:15:36.553Z,18.50
2023-04-09T00:16:36.612Z,17.70
2023-04-09T00:17:36.598Z,19.10
2023-04-09T00:18:36.503Z,16.40
2023-04-09T00:19:36.500Z,17.40
2023-04-09T00:20:36.500Z,17.90
2023-04-09T00:21:36.513Z,18.70
2023-04-09T00:22:36.470Z,17.60
2023-04-09T00:23:36.453Z,20.40
2023-04-09T00:24:36.466Z,17.50
2023-04-09T00:25:36.438Z,17.20
2023-04-09T00:26:36.435Z,20.00
2023-04-09T00:27:36.477Z,18.90
2023-04-09T00:28:36.426Z,19.00
2023-04-09T00:29:36.392Z,16.10
2023-04-09T00:30:36.389Z,17.40
2023-04-09T00:31:36.422Z,13.30
2023-04-09T00:32:36.439Z,22.10
2023-04-09T00:33:36.382Z,17.30
2023-04-09T00:34:36.350Z,15.00
2023-04-09T00:35:36.413Z,14.60
2023-04-09T00:36:36.381Z,15.90
2023-04-09T00:37:36.311Z,17.20
2023-04-09T00:38:36.337Z,19.30
2023-04-09T00:39:36.316Z,16.50
2023-04-09T00:40:36.300Z,15.60
2023-04-09T00:41:36.310Z,14.00
2023-04-09T00:42:36.291Z,16.50
2023-04-09T00:43:36.263Z,21.00
2023-04-09T00:44:36.266Z,15.30
2023-04-09T00:45:36.293Z,18.40
2023-04-09T00:46:36.251Z,24.10
2023-04-09T00:47:36.237Z,17.10
2023-04-09T00:48:36.205Z,18.30
2023-04-09T00:49:36.203Z,17.40
2023-04-09T00:50:36.228Z,17.00
2023-04-09T00:51:36.226Z,19.00
2023-04-09T00:52:36.182Z,17.80
2023-04-09T00:53:36.158Z,15.40
2023-04-09T00:54:36.150Z,16.80
2023-04-09T00:55:36.139Z,15.20
2023-04-09T00:56:36.145Z,16.40
2023-04-09T00:57:36.111Z,17.60
2023-04-09T00:58:36.122Z,14.70
2023-04-09T00:59:36.097Z,14.80
2023-04-09T01:00:36.105Z,20.30
2023-04-09T01:01:36.251Z,19.60
2023-04-09T01:02:36.312Z,18.90
2023-04-09T01:03:36.280Z,20.40
2023-04-09T01:04:36.050Z,15.30
2023-04-09T01:05:36.039Z,15.60
2023-04-09T01:06:36.065Z,18.90
2023-04-09T01:07:36.024Z,15.60
2023-04-09T01:08:36.003Z,16.50
2023-04-09T01:09:35.993Z,17.20
2023-04-09T01:10:35.998Z,13.90
2023-04-09T01:11:36.049Z,20.20
2023-04-09T01:12:35.969Z,19.60
2023-04-09T01:13:35.976Z,16.30
2023-04-09T01:14:35.974Z,21.70
2023-04-09T01:15:35.961Z,18.00
2023-04-09T01:16:35.980Z,18.70
2023-04-09T01:17:35.950Z,22.20
2023-04-09T01:18:35.900Z,20.20
2023-04-09T01:19:35.895Z,17.20
2023-04-09T01:20:35.880Z,15.70
2023-04-09T01:21:35.942Z,17.50
2023-04-09T01:22:35.869Z,17.30
2023-04-09T01:23:35.864Z,16.10
2023-04-09T01:24:35.831Z,16.10
2023-04-09T01:25:35.824Z,16.10
2023-04-09T01:26:35.843Z,14.60
2023-04-09T01:27:35.804Z,15.00
2023-04-09T01:28:35.821Z,17.00
2023-04-09T01:29:35.786Z,17.50
2023-04-09T01:30:35.873Z,19.30
2023-04-09T01:31:35.797Z,20.50
2023-04-09T01:32:35.773Z,18.40
2023-04-09T01:33:35.745Z,20.00
2023-04-09T01:34:35.739Z,14.40
2023-04-09T01:35:35.754Z,18.30
2023-04-09T01:36:35.734Z,18.40
2023-04-09T01:37:35.693Z,15.20
2023-04-09T01:38:35.704Z,23.10
2023-04-09T01:39:35.674Z,17.20
2023-04-09T01:40:35.676Z,16.70
2023-04-09T01:41:35.679Z,17.10
2023-04-09T01:42:35.656Z,19.00
2023-04-09T01:43:35.645Z,15.30
2023-04-09T01:44:35.631Z,16.90
2023-04-09T01:45:35.625Z,18.80
2023-04-09T01:46:35.879Z,19.30
2023-04-09T01:47:35.631Z,20.30
2023-04-09T01:48:35.600Z,15.70
2023-04-09T01:49:35.592Z,18.20
2023-04-09T01:50:35.589Z,19.50
2023-04-09T01:51:35.576Z,21.70
2023-04-09T01:52:35.546Z,19.10
2023-04-09T01:53:35.550Z,19.30
2023-04-09T01:54:35.547Z,19.10
2023-04-09T01:55:35.514Z,16.40
2023-04-09T01:56:35.528Z,19.80
2023-04-09T01:57:35.498Z,17.10
2023-04-09T01:58:35.502Z,21.60
2023-04-09T01:59:35.478Z,17.40
2023-04-09T02:00:35.461Z,20.50
2023-04-09T02:01:35.578Z,19.80
2023-04-09T02:02:35.559Z,18.10
2023-04-09T02:03:35.552Z,18.50
2023-04-09T02:04:35.436Z,22.30
2023-04-09T02:05:35.432Z,20.80
2023-04-09T02:06:35.432Z,20.20
2023-04-09T02:07:35.390Z,24.70
2023-04-09T02:08:35.401Z,22.40
2023-04-09T02:09:35.370Z,19.60
2023-04-09T02:10:35.376Z,22.70
2023-04-09T02:11:35.384Z,20.60
2023-04-09T02:12:35.351Z,19.90
2023-04-09T02:13:35.328Z,25.20
2023-04-09T02:14:35.317Z,20.10
2023-04-09T02:15:35.331Z,19.70
2023-04-09T02:16:35.337Z,22.80
2023-04-09T02:17:35.340Z,21.90
2023-04-09T02:18:35.306Z,24.30
2023-04-09T02:19:35.269Z,21.30
2023-04-09T02:20:35.282Z,19.70
2023-04-09T02:21:35.276Z,24.90
2023-04-09T02:22:35.248Z,21.10
2023-04-09T02:23:35.229Z,26.40
2023-04-09T02:24:35.255Z,22.00
2023-04-09T02:25:35.253Z,21.30
2023-04-09T02:26:35.224Z,23.20
2023-04-09T02:27:35.188Z,25.10
2023-04-09T02:28:35.176Z,22.70
2023-04-09T02:29:35.192Z,26.30
2023-04-09T02:30:35.154Z,21.90
2023-04-09T02:31:35.209Z,22.20
2023-04-09T02:32:41.732Z,22.80
2023-04-09T02:33:35.121Z,26.50
2023-04-09T02:34:35.127Z,20.10
2023-04-09T02:35:35.123Z,20.80
2023-04-09T02:36:35.141Z,23.20
2023-04-09T02:37:35.077Z,20.60
2023-04-09T02:38:35.097Z,26.00
2023-04-09T02:39:35.080Z,23.80
2023-04-09T02:40:35.117Z,18.20
2023-04-09T02:41:35.060Z,21.20
2023-04-09T02:42:35.042Z,23.20
2023-04-09T02:43:35.031Z,25.30
2023-04-09T02:44:35.038Z,24.00
2023-04-09T02:45:35.009Z,24.40
2023-04-09T02:46:35.086Z,21.50
2023-04-09T02:47:35.040Z,25.80
2023-04-09T02:48:34.985Z,22.80
2023-04-09T02:49:34.977Z,23.70
2023-04-09T02:50:34.952Z,20.30
2023-04-09T02:51:34.974Z,28.80
2023-04-09T02:52:34.947Z,24.30
2023-04-09T02:53:34.930Z,25.20
2023-04-09T02:54:34.929Z,22.00
2023-04-09T02:55:34.901Z,24.30
2023-04-09T02:56:34.911Z,27.30
2023-04-09T02:57:34.884Z,26.30
2023-04-09T02:58:34.874Z,24.90
2023-04-09T02:59:34.881Z,24.80
2023-04-09T03:00:34.852Z,26.70
2023-04-09T03:01:34.919Z,29.20
2023-04-09T03:02:34.948Z,22.60
2023-04-09T03:03:34.906Z,29.70
2023-04-09T03:04:34.849Z,29.70
2023-04-09T03:05:34.822Z,22.80
2023-04-09T03:06:34.825Z,28.20
2023-04-09T03:07:34.779Z,28.60
2023-04-09T03:08:34.781Z,25.00
2023-04-09T03:09:34.785Z,23.70
2023-04-09T03:10:34.759Z,25.40
2023-04-09T03:11:34.780Z,26.30
2023-04-09T03:12:34.728Z,26.50
2023-04-09T03:13:34.728Z,24.40
2023-04-09T03:14:35.325Z,28.50
2023-04-09T03:15:34.725Z,27.30
2023-04-09T03:16:34.713Z,29.90
2023-04-09T03:17:34.705Z,26.70
2023-04-09T03:18:34.682Z,26.00
2023-04-09T03:19:34.693Z,22.60
2023-04-09T03:20:34.659Z,25.00
2023-04-09T03:21:34.659Z,34.00
2023-04-09T03:22:34.622Z,28.10
2023-04-09T03:23:34.624Z,31.90
2023-04-09T03:24:34.643Z,33.70
2023-04-09T03:25:34.621Z,27.90
2023-04-09T03:26:34.632Z,31.20
2023-04-09T03:27:34.591Z,32.00
2023-04-09T03:28:34.581Z,24.80
2023-04-09T03:29:34.579Z,29.30
2023-04-09T03:30:34.567Z,27.70
2023-04-09T03:31:34.579Z,28.10
2023-04-09T03:32:34.562Z,33.10
2023-04-09T03:33:34.514Z,36.80
2023-04-09T03:34:34.506Z,28.40
2023-04-09T03:35:34.597Z,33.00
2023-04-09T03:36:34.530Z,32.80
2023-04-09T03:37:34.514Z,31.00
2023-04-09T03:38:34.469Z,34.40
2023-04-09T03:39:34.463Z,38.30
2023-04-09T03:40:34.518Z,29.50
2023-04-09T03:41:34.472Z,32.50
2023-04-09T03:42:34.419Z,29.40
2023-04-09T03:43:34.420Z,29.80
2023-04-09T03:44:34.405Z,33.80
2023-04-09T03:45:34.395Z,33.70
2023-04-09T03:46:34.430Z,36.30
2023-04-09T03:47:34.444Z,43.30
2023-04-09T03:48:34.377Z,34.30
2023-04-09T03:49:34.362Z,28.80
2023-04-09T03:50:34.381Z,34.10
2023-04-09T03:51:34.375Z,39.10
2023-04-09T03:52:34.337Z,35.40
2023-04-09T03:53:34.315Z,38.50
2023-04-09T03:54:34.322Z,34.50
2023-04-09T03:55:34.312Z,37.80
2023-04-09T03:56:34.322Z,40.30
2023-04-09T03:57:34.272Z,39.20
2023-04-09T03:58:34.268Z,43.00
2023-04-09T03:59:34.270Z,35.60
2023-04-09T04:00:34.270Z,39.60
2023-04-09T04:01:34.284Z,37.30
2023-04-09T04:02:34.400Z,43.80
2023-04-09T04:03:34.447Z,45.80
2023-04-09T04:04:34.365Z,37.20
2023-04-09T04:05:34.226Z,43.50
2023-04-09T04:06:34.182Z,40.70
2023-04-09T04:07:34.170Z,37.40
2023-04-09T04:08:34.165Z,39.60
2023-04-09T04:09:34.150Z,42.10
2023-04-09T04:10:34.158Z,50.00
2023-04-09T04:11:34.131Z,50.00
2023-04-09T04:12:34.109Z,44.90
2023-04-09T04:13:34.124Z,42.70
2023-04-09T04:14:34.141Z,39.10
2023-04-09T04:15:34.102Z,44.80
2023-04-09T04:16:34.214Z,49.80
2023-04-09T04:17:34.109Z,56.80
2023-04-09T04:18:34.109Z,41.20
2023-04-09T04:19:34.059Z,40.70
2023-04-09T04:20:34.053Z,41.00
2023-04-09T04:21:34.071Z,53.70
2023-04-09T04:22:34.010Z,47.50
2023-04-09T04:23:34.016Z,44.70
2023-04-09T04:24:33.999Z,41.00
2023-04-09T04:25:33.993Z,42.70
2023-04-09T04:26:34.013Z,45.60
2023-04-09T04:27:33.972Z,56.50
2023-04-09T04:28:33.967Z,50.60
2023-04-09T04:29:33.966Z,58.60
2023-04-09T04:30:33.964Z,48.10
2023-04-09T04:31:33.986Z,49.30
2023-04-09T04:32:33.952Z,56.60
2023-04-09T04:33:33.923Z,41.30
2023-04-09T04:34:33.995Z,47.30
2023-04-09T04:35:33.912Z,42.90
2023-04-09T04:36:33.891Z,43.30
2023-04-09T04:37:33.892Z,40.10
2023-04-09T04:38:33.879Z,48.10
2023-04-09T04:39:33.843Z,46.20
2023-04-09T04:40:33.878Z,44.40
2023-04-09T04:41:33.862Z,41.20
2023-04-09T04:42:33.819Z,45.00
2023-04-09T04:43:33.827Z,35.00
2023-04-09T04:44:33.815Z,42.60
2023-04-09T04:45:33.849Z,38.20
2023-04-09T04:46:33.816Z,38.10
2023-04-09T04:47:33.820Z,45.90
2023-04-09T04:48:33.755Z,48.00
2023-04-09T04:49:33.778Z,41.50
2023-04-09T04:50:33.766Z,38.20
2023-04-09T04:51:33.745Z,33.20
2023-04-09T04:52:33.716Z,43.70
2023-04-09T04:53:33.728Z,46.40
2023-04-09T04:54:33.706Z,44.80
2023-04-09T04:55:33.726Z,42.30
2023-04-09T04:56:33.714Z,38.80
2023-04-09T04:57:33.678Z,44.60
2023-04-09T04:58:33.680Z,39.90
2023-04-09T04:59:33.698Z,37.60
2023-04-09T05:00:33.652Z,37.30
2023-04-09T05:01:33.739Z,32.70
2023-04-09T05:02:33.727Z,35.40
2023-04-09T05:03:33.689Z,41.00
2023-04-09T05:04:33.591Z,34.20
2023-04-09T05:05:33.635Z,35.60
2023-04-09T05:06:33.583Z,37.60
2023-04-09T05:07:33.673Z,35.10
2023-04-09T05:08:33.554Z,34.10
2023-04-09T05:09:33.578Z,41.20
2023-04-09T05:10:33.554Z,36.40
2023-04-09T05:11:33.553Z,38.70
2023-04-09T05:12:33.523Z,39.50
2023-04-09T05:13:33.529Z,33.10
2023-04-09T05:14:33.521Z,38.10
2023-04-09T05:15:33.516Z,30.50
2023-04-09T05:16:33.544Z,32.80
2023-04-09T05:17:33.519Z,32.70
2023-04-09T05:18:33.449Z,36.30
2023-04-09T05:19:33.463Z,36.50
2023-04-09T05:20:33.461Z,38.30
2023-04-09T05:21:33.452Z,34.10
2023-04-09T05:22:33.411Z,31.90
2023-04-09T05:23:33.398Z,41.60
2023-04-09T05:24:33.448Z,36.80
2023-04-09T05:25:33.460Z,30.60
2023-04-09T05:26:33.400Z,32.00
2023-04-09T05:27:33.391Z,36.20
2023-04-09T05:28:33.355Z,31.30
2023-04-09T05:29:33.343Z,33.50
2023-04-09T05:30:33.377Z,35.10
2023-04-09T05:31:33.346Z,42.00
2023-04-09T05:32:33.359Z,44.90
2023-04-09T05:33:33.302Z,33.20
2023-04-09T05:34:33.295Z,32.30
2023-04-09T05:35:33.319Z,42.90
2023-04-09T05:36:33.316Z,43.30
2023-04-09T05:37:33.268Z,42.50
2023-04-09T05:38:33.295Z,40.90
2023-04-09T05:39:33.279Z,33.60
2023-04-09T05:40:33.270Z,37.40
2023-04-09T05:41:33.217Z,46.90
2023-04-09T05:42:33.227Z,42.90
2023-04-09T05:43:33.209Z,42.30
2023-04-09T05:44:33.242Z,41.90
2023-04-09T05:45:33.220Z,46.90
2023-04-09T05:46:33.265Z,45.50
2023-04-09T05:47:33.237Z,52.50
2023-04-09T05:48:33.167Z,51.50
2023-04-09T05:49:33.158Z,60.30
2023-04-09T05:50:40.690Z,60.50
2023-04-09T05:51:33.139Z,70.40
2023-04-09T05:52:33.130Z,52.90
2023-04-09T05:53:33.120Z,49.70
2023-04-09T05:54:33.102Z,56.80
2023-04-09T05:55:33.128Z,53.20
2023-04-09T05:56:33.089Z,54.60
2023-04-09T05:57:33.108Z,52.80
2023-04-09T05:58:33.075Z,62.10
2023-04-09T05:59:33.055Z,71.00
2023-04-09T06:00:33.060Z,70.70
2023-04-09T06:01:33.055Z,58.40
2023-04-09T06:02:33.076Z,60.40
2023-04-09T06:03:33.143Z,66.90
2023-04-09T06:04:33.041Z,60.20
2023-04-09T06:05:33.002Z,67.60
2023-04-09T06:06:32.988Z,63.80
2023-04-09T06:07:32.986Z,68.20
2023-04-09T06:08:32.972Z,63.70
2023-04-09T06:09:32.945Z,67.60
2023-04-09T06:10:32.958Z,64.60
2023-04-09T06:11:32.951Z,64.50
2023-04-09T06:12:32.942Z,61.90
2023-04-09T06:13:32.915Z,59.30
2023-04-09T06:14:32.942Z,58.10
2023-04-09T06:15:32.945Z,62.90
2023-04-09T06:16:32.880Z,70.90
2023-04-09T06:17:32.906Z,62.90
2023-04-09T06:18:32.881Z,64.50
2023-04-09T06:19:32.896Z,62.20
2023-04-09T06:20:32.875Z,69.70
2023-04-09T06:21:32.814Z,64.70
2023-04-09T06:22:32.816Z,64.40
2023-04-09T06:23:32.879Z,76.10
2023-04-09T06:24:32.830Z,72.70
2023-04-09T06:25:32.799Z,73.90
2023-04-09T06:26:32.779Z,75.30
2023-04-09T06:27:32.756Z,61.80
2023-04-09T06:28:32.768Z,61.00
2023-04-09T06:29:32.759Z,59.70
2023-04-09T06:30:32.762Z,65.00
2023-04-09T06:31:32.765Z,68.80
2023-04-09T06:32:37.711Z,70.30
2023-04-09T06:33:32.705Z,73.30
2023-04-09T06:34:32.686Z,78.70
2023-04-09T06:35:32.819Z,71.10
2023-04-09T06:36:32.685Z,67.00
2023-04-09T06:37:32.662Z,69.30
2023-04-09T06:38:32.645Z,66.60
2023-04-09T06:39:32.659Z,58.20
2023-04-09T06:40:32.667Z,64.90
2023-04-09T06:41:32.625Z,65.10
2023-04-09T06:42:32.617Z,60.20
2023-04-09T06:43:32.593Z,64.40
2023-04-09T06:44:32.594Z,63.20
2023-04-09T06:45:32.608Z,62.60
2023-04-09T06:46:32.594Z,62.60
2023-04-09T06:47:32.562Z,59.90
2023-04-09T06:48:32.570Z,60.80
2023-04-09T06:49:32.525Z,56.30
2023-04-09T06:50:32.566Z,57.30
2023-04-09T06:51:32.555Z,52.40
2023-04-09T06:52:32.497Z,48.00
2023-04-09T06:53:32.529Z,50.30
2023-04-09T06:54:32.491Z,50.70
2023-04-09T06:55:32.502Z,52.30
2023-04-09T06:56:32.464Z,53.50
2023-04-09T06:57:32.465Z,54.80
2023-04-09T06:58:32.441Z,47.80
2023-04-09T06:59:32.436Z,45.70
2023-04-09T07:00:32.464Z,49.00
2023-04-09T07:01:32.495Z,48.70
2023-04-09T07:02:32.624Z,45.90
2023-04-09T07:03:32.488Z,44.90
2023-04-09T07:04:32.555Z,46.90
2023-04-09T07:05:32.382Z,47.70
2023-04-09T07:06:32.368Z,45.00
2023-04-09T07:07:32.346Z,45.10
2023-04-09T07:08:32.333Z,46.90
2023-04-09T07:09:32.363Z,47.30
2023-04-09T07:10:32.325Z,41.10
2023-04-09T07:11:32.302Z,34.30
2023-04-09T07:12:32.321Z,29.60
2023-04-09T07:13:32.340Z,37.00
2023-04-09T07:14:32.277Z,28.20
2023-04-09T07:15:32.321Z,28.00
2023-04-09T07:16:32.298Z,30.20
2023-04-09T07:17:32.262Z,26.80
2023-04-09T07:18:32.258Z,25.00
2023-04-09T07:19:32.244Z,34.10
2023-04-09T07:20:32.247Z,27.40
2023-04-09T07:21:32.195Z,27.20
2023-04-09T07:22:32.368Z,28.90
2023-04-09T07:23:32.183Z,26.70
2023-04-09T07:24:32.170Z,25.70
2023-04-09T07:25:32.253Z,27.60
2023-04-09T07:26:32.172Z,30.10
2023-04-09T07:27:32.177Z,26.90
2023-04-09T07:28:32.136Z,26.60
2023-04-09T07:29:32.145Z,25.80
2023-04-09T07:30:32.157Z,30.90
2023-04-09T07:31:33.401Z,26.40
2023-04-09T07:32:32.210Z,22.20
2023-04-09T07:33:32.098Z,26.70
2023-04-09T07:34:32.072Z,26.30
2023-04-09T07:35:32.159Z,23.00
2023-04-09T07:36:32.104Z,28.20
2023-04-09T07:37:32.051Z,25.00
2023-04-09T07:38:32.070Z,21.80
2023-04-09T07:39:32.014Z,17.30
2023-04-09T07:40:32.031Z,26.10
2023-04-09T07:41:31.995Z,19.30
2023-04-09T07:42:32.005Z,22.00
2023-04-09T07:43:32.002Z,27.20
2023-04-09T07:44:31.989Z,24.80
2023-04-09T07:45:31.975Z,27.00
2023-04-09T07:46:31.958Z,21.80
2023-04-09T07:47:31.960Z,18.50
2023-04-09T07:48:31.941Z,21.30
2023-04-09T07:49:31.937Z,17.80
2023-04-09T07:50:31.950Z,21.30
2023-04-09T07:51:31.894Z,18.80
2023-04-09T07:52:31.889Z,19.50
2023-04-09T07:53:31.877Z,19.20
2023-04-09T07:54:31.878Z,23.50
2023-04-09T07:55:31.874Z,20.00
2023-04-09T07:56:31.845Z,20.20
2023-04-09T07:57:31.858Z,15.10
2023-04-09T07:58:31.846Z,17.80
2023-04-09T07:59:31.864Z,22.90
2023-04-09T08:00:31.859Z,15.40
2023-04-09T08:01:31.853Z,17.60
2023-04-09T08:02:32.012Z,20.10
2023-04-09T08:03:32.135Z,18.70
2023-04-09T08:04:31.978Z,16.40
2023-04-09T08:05:31.758Z,15.60
2023-04-09T08:06:31.746Z,16.70
2023-04-09T08:07:31.730Z,15.20
2023-04-09T08:08:31.726Z,18.70
2023-04-09T08:09:31.731Z,17.30
2023-04-09T08:10:31.705Z,15.80
2023-04-09T08:11:31.699Z,15.30
2023-04-09T08:12:31.687Z,16.70
2023-04-09T08:13:31.703Z,14.90
2023-04-09T08:14:31.686Z,20.50
2023-04-09T08:15:31.658Z,17.40
2023-04-09T08:16:31.692Z,15.10
2023-04-09T08:17:31.662Z,15.40
2023-04-09T08:18:31.656Z,16.10
2023-04-09T08:19:31.628Z,12.70
2023-04-09T08:20:31.600Z,16.90
2023-04-09T08:21:31.591Z,17.70
2023-04-09T08:22:31.587Z,14.20
2023-04-09T08:23:31.558Z,17.90
2023-04-09T08:24:31.580Z,17.20
2023-04-09T08:25:31.558Z,14.10
2023-04-09T08:26:31.533Z,14.40
2023-04-09T08:27:31.528Z,16.10
2023-04-09T08:28:31.532Z,15.20
2023-04-09T08:29:31.534Z,17.60
2023-04-09T08:30:31.495Z,15.50
2023-04-09T08:31:31.508Z,14.20
2023-04-09T08:32:31.513Z,14.70
2023-04-09T08:33:31.484Z,14.10
2023-04-09T08:34:31.490Z,13.50
2023-04-09T08:35:31.457Z,15.60
2023-04-09T08:36:31.507Z,16.20
2023-04-09T08:37:31.421Z,14.80
2023-04-09T08:38:31.425Z,15.30
2023-04-09T08:39:31.427Z,17.40
2023-04-09T08:40:31.416Z,17.30
2023-04-09T08:41:31.467Z,17.70
2023-04-09T08:42:31.372Z,17.10
2023-04-09T08:43:52.686Z,14.40
2023-04-09T08:44:31.377Z,13.60
2023-04-09T08:45:31.419Z,16.00
2023-04-09T08:46:31.362Z,14.70
2023-04-09T08:47:31.358Z,15.80
2023-04-09T08:48:31.474Z,14.20
2023-04-09T08:49:31.317Z,14.10
2023-04-09T08:50:31.312Z,15.60
2023-04-09T08:51:31.274Z,17.00
2023-04-09T08:52:31.310Z,14.20
2023-04-09T08:53:31.257Z,17.70
2023-04-09T08:54:31.299Z,18.30
2023-04-09T08:55:31.246Z,18.40
2023-04-09T08:56:31.238Z,15.00
2023-04-09T08:57:31.242Z,12.40
2023-04-09T08:58:31.208Z,17.20
2023-04-09T08:59:31.214Z,14.00
2023-04-09T09:00:31.196Z,17.00
2023-04-09T09:01:31.249Z,19.60
2023-04-09T09:02:31.239Z,12.90
2023-04-09T09:03:31.298Z,15.50
2023-04-09T09:04:31.156Z,16.80
2023-04-09T09:05:31.151Z,14.70
2023-04-09T09:06:31.121Z,13.20
2023-04-09T09:07:31.104Z,12.40
2023-04-09T09:08:31.104Z,16.90
2023-04-09T09:09:31.120Z,13.60
2023-04-09T09:10:31.095Z,12.20
2023-04-09T09:11:31.074Z,16.50
2023-04-09T09:12:31.060Z,12.50
2023-04-09T09:13:31.069Z,12.90
2023-04-09T09:14:31.051Z,13.90
2023-04-09T09:15:31.051Z,12.90
2023-04-09T09:16:31.043Z,13.60
2023-04-09T09:17:31.083Z,14.60
2023-04-09T09:18:30.999Z,14.40
2023-04-09T09:19:31.038Z,13.40
2023-04-09T09:20:30.989Z,12.70
2023-04-09T09:21:30.959Z,15.80
2023-04-09T09:22:30.988Z,12.40
2023-04-09T09:23:30.932Z,12.00
2023-04-09T09:24:30.953Z,14.90
2023-04-09T09:25:30.944Z,12.60
2023-04-09T09:26:30.918Z,10.80
2023-04-09T09:27:30.895Z,11.60
2023-04-09T09:28:30.888Z,15.70
2023-04-09T09:29:30.874Z,15.70
2023-04-09T09:30:30.912Z,12.10
2023-04-09T09:31:30.904Z,10.20
2023-04-09T09:32:30.854Z,13.20
2023-04-09T09:33:30.837Z,10.30
2023-04-09T09:34:30.855Z,11.00
2023-04-09T09:35:30.883Z,12.00
2023-04-09T09:36:30.809Z,10.00
2023-04-09T09:37:30.820Z,10.60
2023-04-09T09:38:30.794Z,13.10
2023-04-09T09:39:30.789Z,9.40
2023-04-09T09:40:30.798Z,13.00
2023-04-09T09:41:30.770Z,11.50
2023-04-09T09:42:30.760Z,11.50
2023-04-09T09:43:30.778Z,13.50
2023-04-09T09:44:30.748Z,10.00
2023-04-09T09:45:30.756Z,14.20
2023-04-09T09:46:30.721Z,10.30
2023-04-09T09:47:30.775Z,10.50
2023-04-09T09:48:30.686Z,7.10
2023-04-09T09:49:30.702Z,12.10
2023-04-09T09:50:30.692Z,9.80
2023-04-09T09:51:30.659Z,10.80
2023-04-09T09:52:30.658Z,10.50
2023-04-09T09:53:30.662Z,11.60
2023-04-09T09:54:30.636Z,11.10
2023-04-09T09:55:30.662Z,10.90
2023-04-09T09:56:30.604Z,12.30
2023-04-09T09:57:30.615Z,11.60
2023-04-09T09:58:30.583Z,12.30
2023-04-09T09:59:30.593Z,14.20
2023-04-09T10:00:30.610Z,11.40
2023-04-09T10:01:30.615Z,9.40
2023-04-09T10:02:30.656Z,9.40
2023-04-09T10:03:30.574Z,9.90
2023-04-09T10:04:30.583Z,12.80
2023-04-09T10:05:30.537Z,8.80
2023-04-09T10:06:30.504Z,12.40
2023-04-09T10:07:30.504Z,11.10
2023-04-09T10:08:30.498Z,10.60
2023-04-09T10:09:30.475Z,9.10
2023-04-09T10:10:30.480Z,13.50
2023-04-09T10:11:30.457Z,10.20
2023-04-09T10:12:30.438Z,10.50
2023-04-09T10:13:30.442Z,10.50
2023-04-09T10:14:30.413Z,9.50
2023-04-09T10:15:30.435Z,10.90
2023-04-09T10:16:30.495Z,9.70
2023-04-09T10:17:30.417Z,10.80
2023-04-09T10:18:30.392Z,7.90
2023-04-09T10:19:30.396Z,11.20
2023-04-09T10:20:30.383Z,12.60
2023-04-09T10:21:30.369Z,10.20
2023-04-09T10:22:30.346Z,10.10
2023-04-09T10:23:30.341Z,9.90
2023-04-09T10:24:30.323Z,11.70
2023-04-09T10:25:30.339Z,9.40
2023-04-09T10:26:30.294Z,11.60
2023-04-09T10:27:30.289Z,10.20
2023-04-09T10:28:30.276Z,11.20
2023-04-09T10:29:30.267Z,8.20
2023-04-09T10:30:30.296Z,11.70
2023-04-09T10:31:30.308Z,9.50
2023-04-09T10:32:30.266Z,10.60
2023-04-09T10:33:30.245Z,8.10
2023-04-09T10:34:30.215Z,10.90
2023-04-09T10:35:30.262Z,8.30
2023-04-09T10:36:30.191Z,13.00
2023-04-09T10:37:30.205Z,8.70
2023-04-09T10:38:30.184Z,12.20
2023-04-09T10:39:30.166Z,12.60
2023-04-09T10:40:30.185Z,8.50
2023-04-09T10:41:30.167Z,10.80
2023-04-09T10:42:30.144Z,9.50
2023-04-09T10:43:30.120Z,9.60
2023-04-09T10:44:30.112Z,9.60
2023-04-09T10:45:30.165Z,11.40
2023-04-09T10:46:30.147Z,9.80
2023-04-09T10:47:30.118Z,10.80
2023-04-09T10:48:30.072Z,9.60
2023-04-09T10:49:30.063Z,9.90
2023-04-09T10:50:30.085Z,9.30
2023-04-09T10:51:30.056Z,10.80
2023-04-09T10:52:30.030Z,11.30
2023-04-09T10:53:30.025Z,12.60
2023-04-09T10:54:30.037Z,10.90
2023-04-09T10:55:30.003Z,10.20
2023-04-09T10:56:29.996Z,10.10
2023-04-09T10:57:30.004Z,9.90
2023-04-09T10:58:30.002Z,9.90
2023-04-09T10:59:29.977Z,8.50
2023-04-09T11:00:29.973Z,9.60
2023-04-09T11:01:29.987Z,12.10
2023-04-09T11:02:30.153Z,9.20
2023-04-09T11:03:30.102Z,10.50
2023-04-09T11:04:29.943Z,10.90
2023-04-09T11:05:29.916Z,13.70
2023-04-09T11:06:29.884Z,10.10
2023-04-09T11:07:29.873Z,9.60
2023-04-09T11:08:29.874Z,8.90
2023-04-09T11:09:29.864Z,9.40
2023-04-09T11:10:29.878Z,9.90
2023-04-09T11:11:29.837Z,12.40
2023-04-09T11:12:29.819Z,10.30
2023-04-09T11:13:29.835Z,10.00
2023-04-09T11:14:29.823Z,12.90
2023-04-09T11:15:29.807Z,10.90
2023-04-09T11:16:29.869Z,13.90
2023-04-09T11:17:29.836Z,11.70
2023-04-09T11:18:29.772Z,10.10
2023-04-09T11:19:29.746Z,11.90
2023-04-09T11:20:29.762Z,11.70
2023-04-09T11:21:29.740Z,10.00
2023-04-09T11:22:29.729Z,10.10
2023-04-09T11:23:29.737Z,10.60
2023-04-09T11:24:29.686Z,12.90
2023-04-09T11:25:29.737Z,12.80
2023-04-09T11:26:29.693Z,10.50
2023-04-09T11:27:29.670Z,12.50
2023-04-09T11:28:29.687Z,9.70
2023-04-09T11:29:29.650Z,10.80
2023-04-09T11:30:29.677Z,10.90
2023-04-09T11:31:29.671Z,9.60
2023-04-09T11:32:29.623Z,13.20
2023-04-09T11:33:29.632Z,11.20
2023-04-09T11:34:29.589Z,12.60
2023-04-09T11:35:29.655Z,10.00
2023-04-09T11:36:29.586Z,13.80
2023-04-09T11:37:29.580Z,9.80
2023-04-09T11:38:29.539Z,10.50
2023-04-09T11:39:29.563Z,13.30
2023-04-09T11:40:29.575Z,11.10
2023-04-09T11:41:29.559Z,13.10
2023-04-09T11:42:29.535Z,15.10
2023-04-09T11:43:29.490Z,10.20
2023-04-09T11:44:29.482Z,10.50
2023-04-09T11:45:29.519Z,10.10
2023-04-09T11:46:29.500Z,11.00
2023-04-09T11:47:29.488Z,9.60
2023-04-09T11:48:29.438Z,11.30
2023-04-09T11:49:29.429Z,9.50
2023-04-09T11:50:29.442Z,10.10
2023-04-09T11:51:29.414Z,11.60
2023-04-09T11:52:29.394Z,10.40
2023-04-09T11:53:29.391Z,12.30
2023-04-09T11:54:29.381Z,10.80
2023-04-09T11:55:29.425Z,10.00
2023-04-09T11:56:29.354Z,13.40
2023-04-09T11:57:29.375Z,12.40
2023-04-09T11:58:29.355Z,11.80
2023-04-09T11:59:29.354Z,10.10
2023-04-09T12:00:29.350Z,11.40
2023-04-09T12:01:29.307Z,13.10
2023-04-09T12:02:29.419Z,12.10
2023-04-09T12:03:29.552Z,9.00
2023-04-09T12:04:29.357Z,11.90
2023-04-09T12:05:29.304Z,10.90
2023-04-09T12:06:29.256Z,12.80
2023-04-09T12:07:29.258Z,11.60
2023-04-09T12:08:29.234Z,12.30
2023-04-09T12:09:29.249Z,14.30
2023-04-09T12:10:29.242Z,10.90
2023-04-09T12:11:29.222Z,11.50
2023-04-09T12:12:29.190Z,11.50
2023-04-09T12:13:29.183Z,10.00
2023-04-09T12:14:29.168Z,14.50
2023-04-09T12:15:29.180Z,13.30
2023-04-09T12:16:29.216Z,13.10
2023-04-09T12:17:29.160Z,12.60
2023-04-09T12:18:29.134Z,12.50
2023-04-09T12:19:29.141Z,12.90
2023-04-09T12:20:29.127Z,10.10
2023-04-09T12:21:29.103Z,13.10
2023-04-09T12:22:29.104Z,10.10
2023-04-09T12:23:29.080Z,11.30
2023-04-09T12:24:29.071Z,11.40
2023-04-09T12:25:29.078Z,13.00
2023-04-09T12:26:29.043Z,12.30
2023-04-09T12:27:29.045Z,10.30
2023-04-09T12:28:29.021Z,11.60
2023-04-09T12:29:29.046Z,16.30
2023-04-09T12:30:29.050Z,11.50
2023-04-09T12:31:29.003Z,11.40
2023-04-09T12:32:28.996Z,10.00
2023-04-09T12:33:28.984Z,10.50
2023-04-09T12:34:28.959Z,11.90
2023-04-09T12:35:29.334Z,11.70
2023-04-09T12:36:29.260Z,10.00
2023-04-09T12:37:28.936Z,10.40
2023-04-09T12:38:28.954Z,10.90
2023-04-09T12:39:28.928Z,10.40
2023-04-09T12:40:28.962Z,13.80
2023-04-09T12:41:28.907Z,11.70
2023-04-09T12:42:28.880Z,8.90
2023-04-09T12:43:28.875Z,11.60
2023-04-09T12:44:29.035Z,8.10
2023-04-09T12:45:28.870Z,12.40
2023-04-09T12:46:28.950Z,12.10
2023-04-09T12:47:28.918Z,11.00
2023-04-09T12:48:28.825Z,8.40
2023-04-09T12:49:28.827Z,9.70
2023-04-09T12:50:29.596Z,9.10
2023-04-09T12:51:28.852Z,12.20
2023-04-09T12:52:29.159Z,9.20
2023-04-09T12:53:28.768Z,8.80
2023-04-09T12:54:28.843Z,11.20